Home > Products > Valid Products > MTR

000
SAUS45 KREV 202057
MTRDRA
METAR KDRA 202052Z AUTO 21008KT 170V230 10SM CLR 29/02 A2990 RMK AO2
SLP084 T02940022 56022





000
SAUS45 KREV 201957
MTRDRA
METAR KDRA 201952Z AUTO 21011G19KT 10SM CLR 28/02 A2992 RMK AO2
SLP091 T02830022





000
SAUS45 KREV 201857
MTRDRA
METAR KDRA 201852Z AUTO VRB03KT 10SM CLR 27/02 A2995 RMK AO2 SLP101
T02720017





000
SAUS45 KREV 201757
MTRDRA
METAR KDRA 201752Z AUTO 00000KT 10SM CLR 26/01 A2997 RMK AO2 SLP112
T02560011 10256 20111 50002





000
SAUS45 KREV 201657
MTRDRA
METAR KDRA 201652Z AUTO 00000KT 10SM CLR 22/01 A2999 RMK AO2 SLP118
T02220011





000
SAUS45 KREV 201557
MTRDRA
METAR KDRA 201552Z AUTO 32004KT 10SM CLR 19/01 A2998 RMK AO2 SLP119
T01890011





000
SAUS45 KREV 201457
MTRDRA
METAR KDRA 201452Z AUTO 33004KT 10SM CLR 14/01 A2997 RMK AO2 SLP115
T01440011 53007





000
SAUS45 KREV 201357
MTRDRA
METAR KDRA 201352Z AUTO 08003KT 10SM CLR 12/01 A2995 RMK AO2 SLP110
T01220006





000
SAUS45 KREV 201257
MTRDRA
METAR KDRA 201252Z AUTO 00000KT 10SM CLR 13/01 A2995 RMK AO2 SLP106
T01330006





000
SAUS45 KREV 201157
MTRDRA
METAR KDRA 201152Z AUTO 00000KT 10SM CLR 13/01 A2994 RMK AO2 SLP101
T01330006 10167 20122 55000





000
SAUS45 KREV 201057
MTRDRA
METAR KDRA 201052Z AUTO 09005KT 10SM CLR 13/01 A2994 RMK AO2 SLP100
T01330006





000
SAUS45 KREV 200957
MTRDRA
METAR KDRA 200952Z AUTO 34005KT 10SM CLR 15/01 A2994 RMK AO2 SLP098
T01500011





000
SAUS45 KREV 200957
MTRDRA
METAR KDRA 200952Z AUTO 34005KT 10SM CLR 15/01 A2994 RMK AO2 SLP098
T01500011





000
SAUS45 KREV 200857
MTRDRA
METAR KDRA 200852Z AUTO 09004KT 10SM CLR 16/01 A2995 RMK AO2 SLP099
T01560006 53003





000
SAUS45 KREV 200757
MTRDRA
METAR KDRA 200752Z AUTO 08005KT 10SM CLR 16/01 A2994 RMK AO2 SLP098
T01610006 402940117





000
SAUS45 KREV 200657
MTRDRA
METAR KDRA 200652Z AUTO 08004KT 10SM CLR 17/01 A2994 RMK AO2 SLP097
T01670011





000
SAUS45 KREV 200557
MTRDRA
METAR KDRA 200552Z AUTO 00000KT 10SM CLR 16/01 A2994 RMK AO2 SLP098
T01560006 10283 20156 51007





000
SAUS45 KREV 200457
MTRDRA
METAR KDRA 200452Z AUTO 06003KT 10SM CLR 18/01 A2994 RMK AO2 SLP098
T01780011





000
SAUS45 KREV 200357
MTRDRA
METAR KDRA 200352Z AUTO 07003KT 10SM CLR 18/01 A2993 RMK AO2 SLP099
T01830006





000
SAUS45 KREV 200257
MTRDRA
METAR KDRA 200252Z AUTO 07003KT 10SM CLR 21/01 A2992 RMK AO2 SLP095
T02060006 53009





000
SAUS45 KREV 200157
MTRDRA
METAR KDRA 200152Z AUTO 22004KT 10SM CLR 24/01 A2990 RMK AO2 SLP092
T02390011





000
SAUS45 KREV 200057
MTRDRA
METAR KDRA 200052Z AUTO 22007KT 10SM CLR 27/02 A2989 RMK AO2 SLP084
T02670017





000
SAUS45 KREV 192357
MTRDRA
METAR KDRA 192352Z AUTO 10SM CLR 28/01 A2989 RMK AO2 SLP080
T02830011 10294 20256 56007





000
SAUS45 KREV 192357
MTRDRA
METAR KDRA 192352Z AUTO 10SM CLR 28/01 A2989 RMK AO2 SLP080
T02830011 10294 20256 56007





000
SAUS45 KREV 192257
MTRDRA
METAR KDRA 192252Z AUTO 19006KT 10SM CLR 29/01 A2989 RMK AO2 SLP081
T02890011





000
SAUS45 KREV 192257
MTRDRA
METAR KDRA 192252Z AUTO 19006KT 10SM CLR 29/01 A2989 RMK AO2 SLP081
T02890011





000
SAUS45 KREV 192157
MTRDRA
METAR KDRA 192152Z AUTO 19006KT 10SM CLR 29/01 A2990 RMK AO2 SLP082
T02940006





000
SAUS45 KREV 192057
MTRDRA
METAR KDRA 192052Z AUTO 13008KT 10SM CLR 29/02 A2991 RMK AO2 SLP087
T02890017 58020





000
SAUS45 KREV 191957
MTRDRA
METAR KDRA 191952Z AUTO VRB03KT 10SM CLR 28/02 A2993 RMK AO2 SLP095
T02830017





000
SAUS45 KREV 191857
MTRDRA
METAR KDRA 191852Z AUTO 00000KT 10SM CLR 27/02 A2996 RMK AO2 SLP105
T02720022





000
SAUS45 KREV 191757
MTRDRA
METAR KDRA 191752Z AUTO 02003KT 10SM CLR 26/02 A2997 RMK AO2 SLP110
T02610022 10261 20117 50002





000
SAUS45 KREV 191657
MTRDRA
METAR KDRA 191652Z AUTO 04007KT 10SM CLR 24/02 A2998 RMK AO2 SLP115
T02390022





000
SAUS45 KREV 191557
MTRDRA
METAR KDRA 191552Z AUTO 03015KT 10SM CLR 21/02 A2998 RMK AO2 SLP117
T02060017





000
SAUS45 KREV 191457
MTRDRA
METAR KDRA 191452Z AUTO 11006KT 10SM CLR 17/02 A2997 RMK AO2 SLP113
T01670017 53009





000
SAUS45 KREV 191357
MTRDRA
METAR KDRA 191352Z AUTO 00000KT 10SM CLR 12/01 A2995 RMK AO2 SLP110
T01220011





000
SAUS45 KREV 191257
MTRDRA
METAR KDRA 191252Z AUTO 11006KT 10SM CLR 13/01 A2995 RMK AO2 SLP106
T01330011





000
SAUS45 KREV 191157
MTRDRA
METAR KDRA 191152Z AUTO 00000KT 10SM CLR 14/02 A2994 RMK AO2 SLP099
T01440017 10172 20139 55003





000
SAUS45 KREV 191057
MTRDRA
METAR KDRA 191052Z AUTO 09005KT 10SM CLR 14/02 A2993 RMK AO2 SLP097
T01440017





000
SAUS45 KREV 190957
MTRDRA
METAR KDRA 190952Z AUTO 10005KT 10SM CLR 15/01 A2994 RMK AO2 SLP103
T01500011





000
SAUS45 KREV 190957
MTRDRA
METAR KDRA 190952Z AUTO 10005KT 10SM CLR 15/01 A2994 RMK AO2 SLP103
T01500011





000
SAUS45 KREV 190858
MTRDRA
METAR KDRA 190852Z AUTO 00000KT 10SM CLR 15/02 A2995 RMK AO2 SLP103
T01500017 56002





000
SAUS45 KREV 190757
MTRDRA
METAR KDRA 190752Z AUTO 00000KT 10SM CLR 15/02 A2995 RMK AO2 SLP104
T01500017 402670139





000
SAUS45 KREV 190657
MTRDRA
METAR KDRA 190652Z AUTO 08005KT 10SM CLR 16/02 A2995 RMK AO2 SLP105
T01560017





000
SAUS45 KREV 190557
MTRDRA
METAR KDRA 190552Z AUTO 08006KT 10SM CLR 17/02 A2995 RMK AO2 SLP110
T01670022 10261 20167 51005





000
SAUS45 KREV 190457
MTRDRA
METAR KDRA 190452Z AUTO 13006KT 10SM CLR 17/02 A2995 RMK AO2 SLP109
T01720022





000
SAUS45 KREV 190457
MTRDRA
METAR KDRA 190452Z AUTO 13006KT 10SM CLR 17/02 A2995 RMK AO2 SLP109
T01720022





000
SAUS45 KREV 190357
MTRDRA
METAR KDRA 190352Z AUTO 03008KT 10SM CLR 19/02 A2995 RMK AO2 SLP106
T01890022





000
SAUS45 KREV 190357
MTRDRA
METAR KDRA 190352Z AUTO 03008KT 10SM CLR 19/02 A2995 RMK AO2 SLP106
T01890022





000
SAUS45 KREV 190257
MTRDRA
METAR KDRA 190252Z AUTO 08007KT 10SM CLR 21/03 A2994 RMK AO2 SLP102
T02110028 53005





000
SAUS45 KREV 190157
MTRDRA
METAR KDRA 190152Z AUTO 08005KT 10SM CLR 22/03 A2993 RMK AO2 SLP098
T02170028





000
SAUS45 KREV 190056
MTRDRA
METAR KDRA 190052Z AUTO 09007KT 10SM CLR 24/02 A2992 RMK AO2 SLP093
T02440022





000
SAUS45 KREV 182357
MTRDRA
METAR KDRA 182352Z AUTO 08007KT 10SM BKN110 26/02 A2992 RMK AO2
SLP093 60000 T02610017 10267 20194 58007





000
SAUS45 KREV 182257
MTRDRA
METAR KDRA 182252Z AUTO 07008KT 10SM SCT120 26/02 A2993 RMK AO2
SLP097 T02610017





000
SAUS45 KREV 182157
MTRDRA
METAR KDRA 182152Z AUTO 11009KT 10SM BKN100 24/04 A2994 RMK AO2
SLP102 T02440039





000
SAUS45 KREV 182057
MTRDRA
METAR KDRA 182052Z AUTO 08010KT 10SM FEW100 26/03 A2995 RMK AO2
SLP101 60000 T02560033 58018





000
SAUS45 KREV 181957
MTRDRA
METAR KDRA 181952Z AUTO 06007KT 10SM FEW031 BKN110 26/04 A2996 RMK
AO2 SLP107 T02560039





000
SAUS45 KREV 181957
MTRDRA
METAR KDRA 181952Z AUTO 06007KT 10SM FEW031 BKN110 26/04 A2996 RMK
AO2 SLP107 T02560039





000
SAUS45 KREV 181857
MTRDRA
METAR KDRA 181852Z AUTO 33007KT 10SM SCT085 OVC110 23/06 A3000 RMK
AO2 RAB15E40 SLP120 P0000 T02280056





000
SAUS45 KREV 181757
MTRDRA
METAR KDRA 181752Z AUTO 13008KT 10SM FEW060 OVC090 19/04 A3001 RMK
AO2 SLP123 T01940039 10206 20156 51009





000
SAUS45 KREV 181657
MTRDRA
METAR KDRA 181652Z AUTO 34004KT 10SM BKN110 20/03 A3000 RMK AO2
SLP125 T02000028





000
SAUS45 KREV 181657
MTRDRA
METAR KDRA 181652Z AUTO 34004KT 10SM BKN110 20/03 A3000 RMK AO2
SLP125 T02000028





000
SAUS45 KREV 181557
MTRDRA
METAR KDRA 181552Z AUTO 31004KT 10SM CLR 18/02 A2999 RMK AO2 SLP121
T01830017





000
SAUS45 KREV 181557
MTRDRA
METAR KDRA 181552Z AUTO 31004KT 10SM CLR 18/02 A2999 RMK AO2 SLP121
T01830017





000
SAUS45 KREV 181457
MTRDRA
METAR KDRA 181452Z AUTO 08004KT 10SM CLR 18/02 A2997 RMK AO2 SLP114
T01780017 53008





000
SAUS45 KREV 181457
MTRDRA
METAR KDRA 181452Z AUTO 08004KT 10SM CLR 18/02 A2997 RMK AO2 SLP114
T01780017 53008





000
SAUS45 KREV 181357
MTRDRA
METAR KDRA 181352Z AUTO 08004KT 10SM CLR 17/02 A2996 RMK AO2 SLP109
T01670017





000
SAUS45 KREV 181257
MTRDRA
METAR KDRA 181252Z AUTO 01006KT 10SM CLR 16/01 A2995 RMK AO2 SLP105
T01610011





000
SAUS45 KREV 181157
MTRDRA
METAR KDRA 181152Z AUTO 32006KT 10SM CLR 16/01 A2995 RMK AO2 SLP101
T01610006 10217 20139 55002





000
SAUS45 KREV 181057
MTRDRA
METAR KDRA 181052Z AUTO 10004KT 10SM CLR 15/00 A2994 RMK AO2 SLP099
T01500000





000
SAUS45 KREV 181057
MTRDRA
METAR KDRA 181052Z AUTO 10004KT 10SM CLR 15/00 A2994 RMK AO2 SLP099
T01500000





000
SAUS45 KREV 180957
MTRDRA
METAR KDRA 180952Z AUTO 10005KT 10SM CLR 15/M01 A2995 RMK AO2 SLP102
T01501006





000
SAUS45 KREV 180857
MTRDRA
METAR KDRA 180852Z AUTO 00000KT 10SM CLR 17/M01 A2996 RMK AO2 SLP104
T01671006 55000





000
SAUS45 KREV 180757
MTRDRA
METAR KDRA 180752Z AUTO 05006KT 10SM CLR 17/M01 A2995 RMK AO2 SLP104
T01721011 402780083





000
SAUS45 KREV 180657
MTRDRA
METAR KDRA 180652Z AUTO 04003KT 10SM CLR 18/M01 A2995 RMK AO2 SLP103
T01781011





000
SAUS45 KREV 180557
MTRDRA
METAR KDRA 180552Z AUTO 00000KT 10SM CLR 22/M01 A2996 RMK AO2 SLP102
T02171006 10267 20183 51007





000
SAUS45 KREV 180457
MTRDRA
METAR KDRA 180452Z AUTO 04005KT 10SM CLR 19/M01 A2995 RMK AO2 SLP107
T01891011





000
SAUS45 KREV 180457
MTRDRA
METAR KDRA 180452Z AUTO 04005KT 10SM CLR 19/M01 A2995 RMK AO2 SLP107
T01891011





000
SAUS45 KREV 180357
MTRDRA
METAR KDRA 180352Z AUTO 03004KT 10SM CLR 20/M01 A2994 RMK AO2 SLP104
T02001011





000
SAUS45 KREV 180257
MTRDRA
METAR KDRA 180252Z AUTO 00000KT 10SM CLR 22/M01 A2993 RMK AO2 SLP104
T02171011 52012





000
SAUS45 KREV 180157
MTRDRA
METAR KDRA 180152Z AUTO 21005KT 10SM CLR 23/00 A2992 RMK AO2 SLP104
T02280000





000
SAUS45 KREV 180057
MTRDRA
METAR KDRA 180052Z AUTO 11008KT 10SM CLR 25/01 A2991 RMK AO2 SLP094
T02500006





000
SAUS45 KREV 172357
MTRDRA
METAR KDRA 172352Z AUTO 21012KT 10SM CLR 27/M01 A2990 RMK AO2 SLP089
T02671011 10278 20233 56009





000
SAUS45 KREV 172357
MTRDRA
METAR KDRA 172352Z AUTO 21012KT 10SM CLR 27/M01 A2990 RMK AO2 SLP089
T02671011 10278 20233 56009





000
SAUS45 KREV 172257
MTRDRA
METAR KDRA 172252Z AUTO 21013G19KT 10SM CLR 27/M03 A2990 RMK AO2
SLP090 T02721033





000
SAUS45 KREV 172257
MTRDRA
METAR KDRA 172252Z AUTO 21013G19KT 10SM CLR 27/M03 A2990 RMK AO2
SLP090 T02721033





000
SAUS45 KREV 172157
MTRDRA
METAR KDRA 172152Z AUTO 22013KT 10SM CLR 27/M06 A2991 RMK AO2 SLP095
T02671061





000
SAUS45 KREV 172157
MTRDRA
METAR KDRA 172152Z AUTO 22013KT 10SM CLR 27/M06 A2991 RMK AO2 SLP095
T02671061





    US Dept of Commerce
    National Oceanic and Atmospheric Administration
    National Weather Service
    1325 East West Highway
    Silver Spring, MD 20910
    Page Author: NWS Internet Services Team
Disclaimer
Information Quality
Credits
Glossary
Privacy Policy
Freedom of Information Act (FOIA)
About Us
Career Opportunities